DAL2400 KCHS-KLIT
Flight info
| Callsign | DAL2400 |
|---|---|
| Flight time | 1h 58m |
| Altitude | 36000 |
| Route | STUNO1 ALD VUZ J14 XESSS |
| Aircraft | A319/M-SDE3FGHIRWY/LB1 |
Departure
| Time | 2026-05-06 00:24 |
|---|---|
| Airport | Charleston International Airport (KCHS) |
Arrival
| Time | 2026-05-06 02:22 |
|---|---|
| Airport | Bill & Hillary Clinton National Airport/Adams Field (KLIT) |
| Time | Latitude | Longitude | Altitude | Speed | Heading |
|---|---|---|---|---|---|
| 2026-05-05 23:53 | 32.88498 | -80.03543 | 37 ft | 0 kts | 308° |
| 2026-05-06 00:09 | 32.88493 | -80.03536 | 37 ft | 4 kts | 304° |
| 2026-05-06 00:09 | 32.88480 | -80.03509 | 35 ft | 2 kts | 302° |
| 2026-05-06 00:09 | 32.88474 | -80.03489 | 35 ft | 4 kts | 229° |
| 2026-05-06 00:09 | 32.88493 | -80.03468 | 33 ft | 4 kts | 210° |
| 2026-05-06 00:10 | 32.88517 | -80.03455 | 33 ft | 3 kts | 202° |
| 2026-05-06 00:10 | 32.88541 | -80.03448 | 36 ft | 4 kts | 164° |
| 2026-05-06 00:10 | 32.88567 | -80.03458 | 35 ft | 4 kts | 160° |
| 2026-05-06 00:10 | 32.88579 | -80.03463 | 34 ft | 0 kts | 166° |
| 2026-05-06 00:13 | 32.88576 | -80.03463 | 35 ft | 2 kts | 167° |
| 2026-05-06 00:14 | 32.88573 | -80.03467 | 35 ft | 1 kts | 220° |
| 2026-05-06 00:14 | 32.88576 | -80.03481 | 35 ft | 4 kts | 293° |
| 2026-05-06 00:14 | 32.88624 | -80.03512 | 39 ft | 8 kts | 330° |
| 2026-05-06 00:14 | 32.88653 | -80.03571 | 39 ft | 9 kts | 289° |
| 2026-05-06 00:15 | 32.88683 | -80.03639 | 39 ft | 10 kts | 324° |
| 2026-05-06 00:15 | 32.88753 | -80.03644 | 38 ft | 11 kts | 5° |
| 2026-05-06 00:15 | 32.88829 | -80.03633 | 40 ft | 10 kts | 9° |
| 2026-05-06 00:15 | 32.88896 | -80.03621 | 43 ft | 11 kts | 8° |
| 2026-05-06 00:16 | 32.88974 | -80.03607 | 46 ft | 12 kts | 9° |
| 2026-05-06 00:16 | 32.89053 | -80.03601 | 47 ft | 11 kts | 0° |
| 2026-05-06 00:16 | 32.89147 | -80.03594 | 48 ft | 15 kts | 1° |
| 2026-05-06 00:16 | 32.89255 | -80.03593 | 47 ft | 16 kts | 1° |
| 2026-05-06 00:17 | 32.89372 | -80.03591 | 46 ft | 18 kts | 0° |
| 2026-05-06 00:17 | 32.89500 | -80.03588 | 43 ft | 19 kts | 4° |
| 2026-05-06 00:17 | 32.89641 | -80.03580 | 42 ft | 21 kts | 1° |
| 2026-05-06 00:17 | 32.89785 | -80.03577 | 43 ft | 21 kts | 1° |
| 2026-05-06 00:18 | 32.89926 | -80.03573 | 45 ft | 20 kts | 2° |
| 2026-05-06 00:18 | 32.90060 | -80.03563 | 48 ft | 19 kts | 11° |
| 2026-05-06 00:18 | 32.90177 | -80.03529 | 51 ft | 17 kts | 346° |
| 2026-05-06 00:18 | 32.90224 | -80.03637 | 53 ft | 14 kts | 301° |
| 2026-05-06 00:19 | 32.90299 | -80.03719 | 51 ft | 16 kts | 319° |
| 2026-05-06 00:19 | 32.90389 | -80.03819 | 50 ft | 18 kts | 314° |
| 2026-05-06 00:19 | 32.90485 | -80.03920 | 48 ft | 19 kts | 324° |
| 2026-05-06 00:19 | 32.90588 | -80.04030 | 49 ft | 21 kts | 317° |
| 2026-05-06 00:20 | 32.90695 | -80.04148 | 46 ft | 21 kts | 317° |
| 2026-05-06 00:20 | 32.90801 | -80.04267 | 49 ft | 21 kts | 310° |
| 2026-05-06 00:20 | 32.90821 | -80.04427 | 50 ft | 20 kts | 253° |
| 2026-05-06 00:20 | 32.90752 | -80.04576 | 49 ft | 22 kts | 229° |
| 2026-05-06 00:21 | 32.90743 | -80.04695 | 49 ft | 16 kts | 333° |
| 2026-05-06 00:21 | 32.90837 | -80.04766 | 50 ft | 16 kts | 327° |
| 2026-05-06 00:21 | 32.90925 | -80.04835 | 53 ft | 15 kts | 326° |
| 2026-05-06 00:21 | 32.91015 | -80.04902 | 52 ft | 16 kts | 329° |
| 2026-05-06 00:22 | 32.91115 | -80.04973 | 51 ft | 17 kts | 329° |
| 2026-05-06 00:22 | 32.91208 | -80.04979 | 50 ft | 14 kts | 55° |
| 2026-05-06 00:22 | 32.91254 | -80.04883 | 55 ft | 13 kts | 54° |
| 2026-05-06 00:22 | 32.91269 | -80.04785 | 53 ft | 13 kts | 129° |
| 2026-05-06 00:23 | 32.91189 | -80.04724 | 55 ft | 14 kts | 146° |
| 2026-05-06 00:23 | 32.91069 | -80.04631 | 57 ft | 41 kts | 147° |
| 2026-05-06 00:23 | 32.90597 | -80.04274 | 47 ft | 116 kts | 147° |
| 2026-05-06 00:23 | 32.89749 | -80.03644 | 145 ft | 161 kts | 148° |
| 2026-05-06 00:24 | 32.88819 | -80.02942 | 821 ft | 160 kts | 149° |
| 2026-05-06 00:24 | 32.87730 | -80.02699 | 1477 ft | 167 kts | 193° |
| 2026-05-06 00:24 | 32.86769 | -80.03554 | 1959 ft | 192 kts | 232° |
| 2026-05-06 00:24 | 32.86462 | -80.05226 | 2285 ft | 228 kts | 267° |
| 2026-05-06 00:25 | 32.86534 | -80.07217 | 2733 ft | 255 kts | 270° |
| 2026-05-06 00:25 | 32.86645 | -80.09368 | 3628 ft | 262 kts | 271° |
| 2026-05-06 00:25 | 32.86765 | -80.11550 | 4706 ft | 265 kts | 272° |
| 2026-05-06 00:25 | 32.86882 | -80.13726 | 5825 ft | 264 kts | 272° |
| 2026-05-06 00:26 | 32.86974 | -80.15923 | 6840 ft | 267 kts | 272° |
| 2026-05-06 00:26 | 32.87055 | -80.18144 | 7776 ft | 271 kts | 272° |
| 2026-05-06 00:26 | 32.87338 | -80.20338 | 8700 ft | 275 kts | 284° |
| 2026-05-06 00:26 | 32.87796 | -80.22442 | 9605 ft | 278 kts | 284° |
| 2026-05-06 00:27 | 32.88287 | -80.24694 | 10367 ft | 289 kts | 284° |
| 2026-05-06 00:27 | 32.88810 | -80.27101 | 10697 ft | 312 kts | 284° |
| 2026-05-06 00:27 | 32.89364 | -80.29647 | 11342 ft | 321 kts | 285° |
| 2026-05-06 00:27 | 32.89925 | -80.32234 | 12154 ft | 325 kts | 285° |
| 2026-05-06 00:28 | 32.90491 | -80.34849 | 13017 ft | 327 kts | 285° |
| 2026-05-06 00:28 | 32.91055 | -80.37481 | 13850 ft | 330 kts | 285° |
| 2026-05-06 00:28 | 32.91629 | -80.40140 | 14580 ft | 333 kts | 285° |
| 2026-05-06 00:28 | 32.92223 | -80.42818 | 15281 ft | 337 kts | 285° |
| 2026-05-06 00:29 | 32.92833 | -80.45523 | 15973 ft | 340 kts | 286° |
| 2026-05-06 00:29 | 32.93451 | -80.48258 | 16664 ft | 344 kts | 286° |
| 2026-05-06 00:29 | 32.93945 | -80.51062 | 17344 ft | 349 kts | 278° |
| 2026-05-06 00:29 | 32.94221 | -80.53953 | 18037 ft | 353 kts | 278° |
| 2026-05-06 00:30 | 32.94496 | -80.56871 | 18679 ft | 356 kts | 278° |
| 2026-05-06 00:30 | 32.94771 | -80.59773 | 19292 ft | 358 kts | 278° |
| 2026-05-06 00:30 | 32.95048 | -80.62726 | 19949 ft | 360 kts | 278° |
| 2026-05-06 00:30 | 32.95325 | -80.65696 | 20609 ft | 361 kts | 278° |
| 2026-05-06 00:31 | 32.95603 | -80.68679 | 21265 ft | 363 kts | 278° |
| 2026-05-06 00:31 | 32.95886 | -80.71674 | 21919 ft | 364 kts | 278° |
| 2026-05-06 00:31 | 32.96172 | -80.74674 | 22566 ft | 366 kts | 278° |
| 2026-05-06 00:31 | 32.96459 | -80.77693 | 23198 ft | 368 kts | 278° |
| 2026-05-06 00:32 | 32.96745 | -80.80720 | 23776 ft | 369 kts | 278° |
| 2026-05-06 00:32 | 32.97033 | -80.83766 | 24261 ft | 371 kts | 278° |
| 2026-05-06 00:32 | 32.97321 | -80.86833 | 24747 ft | 373 kts | 278° |
| 2026-05-06 00:32 | 32.97603 | -80.89905 | 25219 ft | 374 kts | 278° |
| 2026-05-06 00:33 | 32.97886 | -80.92997 | 25678 ft | 376 kts | 278° |
| 2026-05-06 00:33 | 32.98173 | -80.96109 | 26116 ft | 378 kts | 278° |
| 2026-05-06 00:33 | 32.98463 | -80.99181 | 26555 ft | 380 kts | 279° |
| 2026-05-06 00:33 | 32.98766 | -81.02353 | 27002 ft | 381 kts | 279° |
| 2026-05-06 00:34 | 32.99061 | -81.05500 | 27447 ft | 383 kts | 279° |
| 2026-05-06 00:34 | 32.99356 | -81.08662 | 27886 ft | 385 kts | 279° |
| 2026-05-06 00:34 | 32.99645 | -81.11800 | 28314 ft | 387 kts | 279° |
| 2026-05-06 00:34 | 32.99944 | -81.14989 | 28739 ft | 389 kts | 279° |
| 2026-05-06 00:35 | 33.00247 | -81.18223 | 29162 ft | 391 kts | 279° |
| 2026-05-06 00:35 | 33.00542 | -81.21426 | 29568 ft | 393 kts | 279° |
| 2026-05-06 00:35 | 33.00838 | -81.24668 | 29963 ft | 395 kts | 279° |
| 2026-05-06 00:35 | 33.01134 | -81.27932 | 30312 ft | 397 kts | 279° |
| 2026-05-06 00:36 | 33.01450 | -81.31203 | 30635 ft | 398 kts | 281° |
| 2026-05-06 00:36 | 33.01855 | -81.34466 | 30972 ft | 398 kts | 283° |
| 2026-05-06 00:36 | 33.02322 | -81.37720 | 31309 ft | 399 kts | 284° |
| 2026-05-06 00:36 | 33.02821 | -81.40977 | 31636 ft | 400 kts | 284° |
| 2026-05-06 00:37 | 33.03320 | -81.44243 | 31968 ft | 401 kts | 284° |
| 2026-05-06 00:37 | 33.03811 | -81.47518 | 32357 ft | 400 kts | 284° |
| 2026-05-06 00:37 | 33.04279 | -81.50767 | 32848 ft | 397 kts | 284° |
| 2026-05-06 00:37 | 33.04727 | -81.54001 | 33333 ft | 394 kts | 284° |
| 2026-05-06 00:38 | 33.05020 | -81.56136 | 33659 ft | 392 kts | 284° |
| 2026-05-06 00:38 | 33.05451 | -81.59338 | 34139 ft | 389 kts | 284° |
| 2026-05-06 00:38 | 33.05883 | -81.62508 | 34577 ft | 386 kts | 284° |
| 2026-05-06 00:38 | 33.06312 | -81.65660 | 34982 ft | 384 kts | 284° |
| 2026-05-06 00:39 | 33.06742 | -81.68788 | 35383 ft | 381 kts | 284° |
| 2026-05-06 00:39 | 33.07172 | -81.71892 | 35764 ft | 379 kts | 284° |
| 2026-05-06 00:39 | 33.07599 | -81.74990 | 35982 ft | 377 kts | 284° |
| 2026-05-06 00:40 | 33.08436 | -81.81094 | 36018 ft | 370 kts | 284° |
| 2026-05-06 00:40 | 33.09267 | -81.87134 | 36016 ft | 368 kts | 284° |
| 2026-05-06 00:41 | 33.10082 | -81.93165 | 36015 ft | 368 kts | 284° |
| 2026-05-06 00:41 | 33.10893 | -81.99184 | 36012 ft | 367 kts | 284° |
| 2026-05-06 00:42 | 33.11695 | -82.05199 | 36011 ft | 367 kts | 284° |
| 2026-05-06 00:42 | 33.12498 | -82.11166 | 36014 ft | 367 kts | 284° |
| 2026-05-06 00:43 | 33.13306 | -82.17173 | 36014 ft | 366 kts | 284° |
| 2026-05-06 00:43 | 33.14108 | -82.23176 | 36016 ft | 366 kts | 284° |
| 2026-05-06 00:44 | 33.14899 | -82.29174 | 36022 ft | 366 kts | 284° |
| 2026-05-06 00:44 | 33.15688 | -82.35166 | 36019 ft | 365 kts | 284° |
| 2026-05-06 00:45 | 33.16479 | -82.41155 | 36021 ft | 365 kts | 284° |
| 2026-05-06 00:45 | 33.17268 | -82.47133 | 36021 ft | 364 kts | 284° |
| 2026-05-06 00:46 | 33.18044 | -82.53102 | 36021 ft | 364 kts | 284° |
| 2026-05-06 00:46 | 33.18824 | -82.59065 | 36024 ft | 363 kts | 284° |
| 2026-05-06 00:47 | 33.19593 | -82.65028 | 36022 ft | 363 kts | 284° |
| 2026-05-06 00:47 | 33.20354 | -82.70949 | 36022 ft | 363 kts | 284° |
| 2026-05-06 00:48 | 33.21117 | -82.76909 | 36022 ft | 363 kts | 284° |
| 2026-05-06 00:48 | 33.21874 | -82.82866 | 36021 ft | 363 kts | 284° |
| 2026-05-06 00:49 | 33.22630 | -82.88822 | 36021 ft | 363 kts | 284° |
| 2026-05-06 00:49 | 33.23382 | -82.94775 | 36023 ft | 362 kts | 283° |
| 2026-05-06 00:50 | 33.24131 | -83.00719 | 36030 ft | 362 kts | 284° |
| 2026-05-06 00:50 | 33.24891 | -83.06651 | 36029 ft | 361 kts | 284° |
| 2026-05-06 00:51 | 33.25646 | -83.12574 | 36033 ft | 361 kts | 283° |
| 2026-05-06 00:51 | 33.26386 | -83.18465 | 36034 ft | 360 kts | 283° |
| 2026-05-06 00:52 | 33.27121 | -83.24388 | 36031 ft | 360 kts | 283° |
| 2026-05-06 00:52 | 33.27853 | -83.30305 | 36035 ft | 360 kts | 283° |
| 2026-05-06 00:53 | 33.28584 | -83.36222 | 36034 ft | 359 kts | 283° |
| 2026-05-06 00:53 | 33.29311 | -83.42125 | 36031 ft | 359 kts | 283° |
| 2026-05-06 00:54 | 33.30031 | -83.48033 | 36027 ft | 359 kts | 283° |
| 2026-05-06 00:54 | 33.30756 | -83.53934 | 36031 ft | 358 kts | 283° |
| 2026-05-06 00:55 | 33.31480 | -83.59826 | 36031 ft | 358 kts | 283° |
| 2026-05-06 00:55 | 33.32197 | -83.65717 | 36033 ft | 358 kts | 283° |
| 2026-05-06 00:56 | 33.32897 | -83.71603 | 36035 ft | 357 kts | 283° |
| 2026-05-06 00:56 | 33.33601 | -83.77481 | 36032 ft | 357 kts | 282° |
| 2026-05-06 00:57 | 33.34308 | -83.83349 | 36036 ft | 356 kts | 282° |
| 2026-05-06 00:57 | 33.35009 | -83.89212 | 36030 ft | 356 kts | 282° |
| 2026-05-06 00:58 | 33.35705 | -83.95074 | 36030 ft | 356 kts | 282° |
| 2026-05-06 00:58 | 33.36395 | -84.00937 | 36047 ft | 355 kts | 282° |
| 2026-05-06 00:59 | 33.37086 | -84.06787 | 36051 ft | 355 kts | 282° |
| 2026-05-06 00:59 | 33.37768 | -84.12635 | 36061 ft | 355 kts | 282° |
| 2026-05-06 01:00 | 33.38443 | -84.18473 | 36066 ft | 354 kts | 282° |
| 2026-05-06 01:00 | 33.39124 | -84.24306 | 36075 ft | 354 kts | 282° |
| 2026-05-06 01:01 | 33.39799 | -84.30124 | 36073 ft | 353 kts | 282° |
| 2026-05-06 01:01 | 33.40470 | -84.35949 | 36071 ft | 353 kts | 282° |
| 2026-05-06 01:02 | 33.41141 | -84.41755 | 36074 ft | 352 kts | 282° |
| 2026-05-06 01:02 | 33.41805 | -84.47565 | 36036 ft | 352 kts | 282° |
| 2026-05-06 01:03 | 33.42459 | -84.53362 | 36035 ft | 351 kts | 282° |
| 2026-05-06 01:03 | 33.43113 | -84.59115 | 36029 ft | 351 kts | 282° |
| 2026-05-06 01:04 | 33.43774 | -84.64903 | 36031 ft | 351 kts | 281° |
| 2026-05-06 01:04 | 33.44427 | -84.70698 | 36032 ft | 351 kts | 281° |
| 2026-05-06 01:05 | 33.45071 | -84.76479 | 36032 ft | 350 kts | 281° |
| 2026-05-06 01:05 | 33.45713 | -84.82256 | 36029 ft | 350 kts | 281° |
| 2026-05-06 01:06 | 33.46353 | -84.88039 | 36029 ft | 350 kts | 281° |
| 2026-05-06 01:06 | 33.46993 | -84.93825 | 36028 ft | 351 kts | 281° |
| 2026-05-06 01:07 | 33.47628 | -84.99613 | 36048 ft | 351 kts | 281° |
| 2026-05-06 01:07 | 33.48259 | -85.05406 | 36047 ft | 350 kts | 281° |
| 2026-05-06 01:08 | 33.48889 | -85.11193 | 36054 ft | 350 kts | 281° |
| 2026-05-06 01:08 | 33.49517 | -85.16969 | 36052 ft | 349 kts | 281° |
| 2026-05-06 01:09 | 33.50144 | -85.22732 | 36046 ft | 349 kts | 281° |
| 2026-05-06 01:09 | 33.50759 | -85.28462 | 36042 ft | 349 kts | 281° |
| 2026-05-06 01:10 | 33.51377 | -85.34219 | 36034 ft | 349 kts | 281° |
| 2026-05-06 01:10 | 33.51997 | -85.40018 | 36029 ft | 349 kts | 281° |
| 2026-05-06 01:11 | 33.52603 | -85.45747 | 36024 ft | 349 kts | 281° |
| 2026-05-06 01:11 | 33.53209 | -85.51511 | 36005 ft | 349 kts | 281° |
| 2026-05-06 01:12 | 33.53822 | -85.57271 | 36004 ft | 349 kts | 280° |
| 2026-05-06 01:12 | 33.54427 | -85.63029 | 35998 ft | 348 kts | 280° |
| 2026-05-06 01:13 | 33.55022 | -85.68782 | 35992 ft | 348 kts | 280° |
| 2026-05-06 01:13 | 33.55614 | -85.74531 | 35985 ft | 347 kts | 280° |
| 2026-05-06 01:14 | 33.56513 | -85.83143 | 35991 ft | 347 kts | 280° |
| 2026-05-06 01:14 | 33.57103 | -85.88892 | 35995 ft | 347 kts | 280° |
| 2026-05-06 01:15 | 33.57689 | -85.94638 | 35992 ft | 347 kts | 280° |
| 2026-05-06 01:15 | 33.58268 | -86.00378 | 35998 ft | 347 kts | 280° |
| 2026-05-06 01:16 | 33.58841 | -86.06080 | 35998 ft | 347 kts | 280° |
| 2026-05-06 01:16 | 33.59422 | -86.11860 | 36000 ft | 347 kts | 280° |
| 2026-05-06 01:17 | 33.59992 | -86.17564 | 36000 ft | 346 kts | 279° |
| 2026-05-06 01:17 | 33.60565 | -86.23293 | 36001 ft | 346 kts | 279° |
| 2026-05-06 01:18 | 33.61133 | -86.29027 | 35997 ft | 346 kts | 279° |
| 2026-05-06 01:18 | 33.61695 | -86.34754 | 35995 ft | 346 kts | 279° |
| 2026-05-06 01:19 | 33.62258 | -86.40483 | 35993 ft | 346 kts | 279° |
| 2026-05-06 01:19 | 33.62826 | -86.46208 | 35994 ft | 345 kts | 279° |
| 2026-05-06 01:20 | 33.63385 | -86.51928 | 35990 ft | 345 kts | 279° |
| 2026-05-06 01:20 | 33.63941 | -86.57635 | 35987 ft | 345 kts | 279° |
| 2026-05-06 01:21 | 33.64487 | -86.63348 | 35989 ft | 345 kts | 279° |
| 2026-05-06 01:21 | 33.65034 | -86.69061 | 35990 ft | 345 kts | 279° |
| 2026-05-06 01:22 | 33.65580 | -86.74777 | 35983 ft | 345 kts | 279° |
| 2026-05-06 01:22 | 33.66125 | -86.80495 | 35979 ft | 345 kts | 279° |
| 2026-05-06 01:23 | 33.66659 | -86.86180 | 35973 ft | 345 kts | 278° |
| 2026-05-06 01:23 | 33.67416 | -86.91845 | 35968 ft | 344 kts | 285° |
| 2026-05-06 01:24 | 33.68615 | -86.97401 | 35954 ft | 344 kts | 284° |
| 2026-05-06 01:24 | 33.69798 | -87.02973 | 35950 ft | 344 kts | 284° |
| 2026-05-06 01:25 | 33.70983 | -87.08544 | 35926 ft | 344 kts | 284° |
| 2026-05-06 01:25 | 33.72169 | -87.14116 | 35928 ft | 344 kts | 284° |
| 2026-05-06 01:26 | 33.73152 | -87.18750 | 35927 ft | 344 kts | 284° |
| 2026-05-06 01:26 | 33.74336 | -87.24322 | 35933 ft | 345 kts | 284° |
| 2026-05-06 01:27 | 33.75518 | -87.29904 | 35942 ft | 345 kts | 284° |
| 2026-05-06 01:27 | 33.76694 | -87.35489 | 35944 ft | 345 kts | 284° |
| 2026-05-06 01:28 | 33.77866 | -87.41074 | 35931 ft | 345 kts | 284° |
| 2026-05-06 01:28 | 33.79040 | -87.46660 | 35937 ft | 345 kts | 284° |
| 2026-05-06 01:29 | 33.80215 | -87.52259 | 35928 ft | 345 kts | 284° |
| 2026-05-06 01:29 | 33.81383 | -87.57862 | 35922 ft | 345 kts | 284° |
| 2026-05-06 01:30 | 33.82550 | -87.63472 | 35917 ft | 345 kts | 284° |
| 2026-05-06 01:30 | 33.83714 | -87.69071 | 35910 ft | 345 kts | 284° |
| 2026-05-06 01:31 | 33.84868 | -87.74636 | 35905 ft | 345 kts | 284° |
| 2026-05-06 01:31 | 33.86023 | -87.80239 | 35908 ft | 345 kts | 284° |
| 2026-05-06 01:32 | 33.87179 | -87.85841 | 35911 ft | 345 kts | 284° |
| 2026-05-06 01:32 | 33.88333 | -87.91440 | 35912 ft | 345 kts | 283° |
| 2026-05-06 01:33 | 33.89482 | -87.97043 | 35916 ft | 345 kts | 283° |
| 2026-05-06 01:33 | 33.90624 | -88.02641 | 35912 ft | 344 kts | 283° |
| 2026-05-06 01:34 | 33.91766 | -88.08244 | 35920 ft | 344 kts | 283° |
| 2026-05-06 01:34 | 33.92908 | -88.13837 | 35917 ft | 344 kts | 283° |
| 2026-05-06 01:35 | 33.94042 | -88.19432 | 35919 ft | 344 kts | 283° |
| 2026-05-06 01:35 | 33.95176 | -88.25020 | 35913 ft | 343 kts | 283° |
| 2026-05-06 01:36 | 33.96313 | -88.30606 | 35913 ft | 343 kts | 283° |
| 2026-05-06 01:36 | 33.97437 | -88.36188 | 35916 ft | 343 kts | 283° |
| 2026-05-06 01:37 | 33.98559 | -88.41767 | 35915 ft | 342 kts | 283° |
| 2026-05-06 01:37 | 33.99664 | -88.47306 | 35915 ft | 342 kts | 283° |
| 2026-05-06 01:38 | 34.00779 | -88.52876 | 35912 ft | 342 kts | 283° |
| 2026-05-06 01:38 | 34.01890 | -88.58449 | 35913 ft | 342 kts | 283° |
| 2026-05-06 01:39 | 34.02994 | -88.64013 | 35918 ft | 341 kts | 283° |
| 2026-05-06 01:39 | 34.04104 | -88.69582 | 35920 ft | 341 kts | 283° |
| 2026-05-06 01:40 | 34.05206 | -88.75145 | 35920 ft | 341 kts | 283° |
| 2026-05-06 01:40 | 34.06309 | -88.80702 | 35916 ft | 340 kts | 283° |
| 2026-05-06 01:41 | 34.07401 | -88.86211 | 35922 ft | 340 kts | 282° |
| 2026-05-06 01:41 | 34.08491 | -88.91767 | 35921 ft | 340 kts | 282° |
| 2026-05-06 01:42 | 34.09582 | -88.97316 | 35918 ft | 339 kts | 282° |
| 2026-05-06 01:42 | 34.10660 | -89.02854 | 35916 ft | 339 kts | 282° |
| 2026-05-06 01:43 | 34.11730 | -89.08395 | 35916 ft | 339 kts | 282° |
| 2026-05-06 01:43 | 34.12808 | -89.13923 | 35912 ft | 338 kts | 282° |
| 2026-05-06 01:44 | 34.13889 | -89.19459 | 35903 ft | 338 kts | 282° |
| 2026-05-06 01:44 | 34.14963 | -89.24983 | 35903 ft | 338 kts | 282° |
| 2026-05-06 01:45 | 34.16025 | -89.30514 | 35900 ft | 338 kts | 282° |
| 2026-05-06 01:45 | 34.17091 | -89.36039 | 35903 ft | 338 kts | 282° |
| 2026-05-06 01:46 | 34.18147 | -89.41526 | 35901 ft | 337 kts | 282° |
| 2026-05-06 01:46 | 34.19198 | -89.47040 | 35900 ft | 337 kts | 282° |
| 2026-05-06 01:47 | 34.19724 | -89.49805 | 35724 ft | 338 kts | 282° |
| 2026-05-06 01:47 | 34.20252 | -89.52570 | 35484 ft | 338 kts | 282° |
| 2026-05-06 01:47 | 34.20844 | -89.55319 | 35245 ft | 339 kts | 284° |
| 2026-05-06 01:47 | 34.21503 | -89.58061 | 35007 ft | 340 kts | 284° |
| 2026-05-06 01:48 | 34.22197 | -89.60806 | 34775 ft | 342 kts | 285° |
| 2026-05-06 01:48 | 34.22897 | -89.63553 | 34539 ft | 342 kts | 285° |
| 2026-05-06 01:48 | 34.23590 | -89.66308 | 34306 ft | 343 kts | 284° |
| 2026-05-06 01:48 | 34.24275 | -89.69076 | 34081 ft | 344 kts | 284° |
| 2026-05-06 01:49 | 34.24954 | -89.71853 | 33826 ft | 345 kts | 284° |
| 2026-05-06 01:49 | 34.25629 | -89.74642 | 33558 ft | 346 kts | 284° |
| 2026-05-06 01:49 | 34.26302 | -89.77447 | 33294 ft | 347 kts | 284° |
| 2026-05-06 01:49 | 34.26968 | -89.80224 | 33038 ft | 349 kts | 284° |
| 2026-05-06 01:50 | 34.27646 | -89.83048 | 32781 ft | 350 kts | 284° |
| 2026-05-06 01:50 | 34.28329 | -89.85875 | 32530 ft | 351 kts | 284° |
| 2026-05-06 01:50 | 34.29013 | -89.88715 | 32278 ft | 351 kts | 284° |
| 2026-05-06 01:50 | 34.29695 | -89.91548 | 32034 ft | 351 kts | 284° |
| 2026-05-06 01:51 | 34.30346 | -89.94261 | 31792 ft | 350 kts | 284° |
| 2026-05-06 01:51 | 34.31022 | -89.97083 | 31545 ft | 349 kts | 284° |
| 2026-05-06 01:51 | 34.31696 | -89.99901 | 31310 ft | 348 kts | 284° |
| 2026-05-06 01:51 | 34.32366 | -90.02709 | 31069 ft | 347 kts | 284° |
| 2026-05-06 01:52 | 34.33033 | -90.05514 | 30832 ft | 347 kts | 284° |
| 2026-05-06 01:52 | 34.33702 | -90.08314 | 30594 ft | 346 kts | 284° |
| 2026-05-06 01:52 | 34.34370 | -90.11110 | 30362 ft | 345 kts | 284° |
| 2026-05-06 01:52 | 34.35059 | -90.13886 | 30129 ft | 345 kts | 285° |
| 2026-05-06 01:53 | 34.35789 | -90.16647 | 29892 ft | 344 kts | 286° |
| 2026-05-06 01:53 | 34.36535 | -90.19383 | 29621 ft | 343 kts | 286° |
| 2026-05-06 01:53 | 34.37290 | -90.22131 | 29353 ft | 342 kts | 286° |
| 2026-05-06 01:53 | 34.38038 | -90.24863 | 29074 ft | 341 kts | 286° |
| 2026-05-06 01:54 | 34.38777 | -90.27588 | 28818 ft | 340 kts | 286° |
| 2026-05-06 01:54 | 34.39510 | -90.30305 | 28567 ft | 339 kts | 286° |
| 2026-05-06 01:54 | 34.40237 | -90.33016 | 28299 ft | 338 kts | 286° |
| 2026-05-06 01:54 | 34.40949 | -90.35681 | 28037 ft | 337 kts | 286° |
| 2026-05-06 01:55 | 34.41663 | -90.38376 | 27789 ft | 335 kts | 285° |
| 2026-05-06 01:55 | 34.42376 | -90.41068 | 27536 ft | 334 kts | 286° |
| 2026-05-06 01:55 | 34.43087 | -90.43747 | 27283 ft | 333 kts | 286° |
| 2026-05-06 01:55 | 34.43796 | -90.46414 | 27032 ft | 333 kts | 286° |
| 2026-05-06 01:56 | 34.44505 | -90.49078 | 26788 ft | 332 kts | 286° |
| 2026-05-06 01:56 | 34.45209 | -90.51724 | 26390 ft | 328 kts | 285° |
| 2026-05-06 01:56 | 34.45903 | -90.54343 | 25840 ft | 326 kts | 285° |
| 2026-05-06 01:56 | 34.46594 | -90.56949 | 25297 ft | 324 kts | 286° |
| 2026-05-06 01:57 | 34.47279 | -90.59536 | 24792 ft | 322 kts | 285° |
| 2026-05-06 01:57 | 34.47959 | -90.62114 | 24300 ft | 320 kts | 285° |
| 2026-05-06 01:57 | 34.48634 | -90.64681 | 23805 ft | 319 kts | 285° |
| 2026-05-06 01:57 | 34.49306 | -90.67236 | 23303 ft | 317 kts | 285° |
| 2026-05-06 01:58 | 34.49973 | -90.69779 | 22742 ft | 316 kts | 285° |
| 2026-05-06 01:58 | 34.50635 | -90.72306 | 22206 ft | 313 kts | 285° |
| 2026-05-06 01:58 | 34.51293 | -90.74814 | 21694 ft | 311 kts | 285° |
| 2026-05-06 01:58 | 34.51946 | -90.77302 | 21187 ft | 309 kts | 285° |
| 2026-05-06 01:59 | 34.52597 | -90.79779 | 20684 ft | 307 kts | 285° |
| 2026-05-06 01:59 | 34.53239 | -90.82233 | 20172 ft | 304 kts | 285° |
| 2026-05-06 01:59 | 34.53877 | -90.84671 | 19677 ft | 302 kts | 284° |
| 2026-05-06 01:59 | 34.54510 | -90.87097 | 19189 ft | 301 kts | 284° |
| 2026-05-06 02:00 | 34.55138 | -90.89509 | 18713 ft | 299 kts | 284° |
| 2026-05-06 02:00 | 34.55762 | -90.91905 | 18242 ft | 297 kts | 284° |
| 2026-05-06 02:00 | 34.56382 | -90.94291 | 17736 ft | 296 kts | 284° |
| 2026-05-06 02:00 | 34.57002 | -90.96669 | 17217 ft | 295 kts | 284° |
| 2026-05-06 02:01 | 34.57618 | -90.99033 | 16708 ft | 293 kts | 284° |
| 2026-05-06 02:01 | 34.58229 | -91.01388 | 16208 ft | 292 kts | 284° |
| 2026-05-06 02:01 | 34.58838 | -91.03731 | 15725 ft | 291 kts | 283° |
| 2026-05-06 02:01 | 34.59447 | -91.06070 | 15264 ft | 290 kts | 283° |
| 2026-05-06 02:02 | 34.60053 | -91.08400 | 14803 ft | 289 kts | 283° |
| 2026-05-06 02:02 | 34.60654 | -91.10719 | 14350 ft | 288 kts | 283° |
| 2026-05-06 02:02 | 34.61257 | -91.13030 | 13919 ft | 286 kts | 284° |
| 2026-05-06 02:02 | 34.61867 | -91.15327 | 13462 ft | 285 kts | 284° |
| 2026-05-06 02:03 | 34.62604 | -91.17533 | 12960 ft | 289 kts | 292° |
| 2026-05-06 02:03 | 34.63573 | -91.19670 | 12463 ft | 289 kts | 294° |
| 2026-05-06 02:03 | 34.64552 | -91.21792 | 11972 ft | 288 kts | 294° |
| 2026-05-06 02:03 | 34.65525 | -91.23913 | 11487 ft | 287 kts | 294° |
| 2026-05-06 02:04 | 34.66492 | -91.26029 | 11005 ft | 286 kts | 294° |
| 2026-05-06 02:04 | 34.67451 | -91.28149 | 10531 ft | 286 kts | 294° |
| 2026-05-06 02:04 | 34.68389 | -91.30244 | 10320 ft | 276 kts | 294° |
| 2026-05-06 02:04 | 34.69291 | -91.32249 | 10200 ft | 265 kts | 294° |
| 2026-05-06 02:05 | 34.70166 | -91.34190 | 10091 ft | 261 kts | 294° |
| 2026-05-06 02:05 | 34.71027 | -91.36121 | 10022 ft | 258 kts | 292° |
| 2026-05-06 02:05 | 34.71761 | -91.38110 | 10029 ft | 258 kts | 289° |
| 2026-05-06 02:05 | 34.72465 | -91.40109 | 10034 ft | 257 kts | 289° |
| 2026-05-06 02:06 | 34.73169 | -91.42112 | 10032 ft | 257 kts | 289° |
| 2026-05-06 02:06 | 34.73873 | -91.44110 | 10033 ft | 257 kts | 289° |
| 2026-05-06 02:06 | 34.74578 | -91.46108 | 10035 ft | 257 kts | 289° |
| 2026-05-06 02:06 | 34.75283 | -91.48102 | 9987 ft | 255 kts | 289° |
| 2026-05-06 02:07 | 34.75981 | -91.50072 | 9614 ft | 254 kts | 289° |
| 2026-05-06 02:07 | 34.76676 | -91.52041 | 9204 ft | 253 kts | 289° |
| 2026-05-06 02:07 | 34.77371 | -91.53997 | 8780 ft | 252 kts | 289° |
| 2026-05-06 02:07 | 34.78071 | -91.55950 | 8352 ft | 252 kts | 289° |
| 2026-05-06 02:08 | 34.78777 | -91.57897 | 7936 ft | 251 kts | 289° |
| 2026-05-06 02:08 | 34.79487 | -91.59837 | 7525 ft | 251 kts | 289° |
| 2026-05-06 02:08 | 34.80202 | -91.61772 | 7099 ft | 251 kts | 289° |
| 2026-05-06 02:08 | 34.80917 | -91.63703 | 6673 ft | 250 kts | 289° |
| 2026-05-06 02:09 | 34.81622 | -91.65607 | 6235 ft | 250 kts | 289° |
| 2026-05-06 02:09 | 34.82342 | -91.67533 | 5746 ft | 250 kts | 289° |
| 2026-05-06 02:09 | 34.83082 | -91.69488 | 5236 ft | 251 kts | 289° |
| 2026-05-06 02:09 | 34.83821 | -91.71408 | 5028 ft | 252 kts | 289° |
| 2026-05-06 02:10 | 34.84571 | -91.73341 | 5019 ft | 253 kts | 289° |
| 2026-05-06 02:10 | 34.85320 | -91.75283 | 5016 ft | 254 kts | 289° |
| 2026-05-06 02:10 | 34.86071 | -91.77230 | 5010 ft | 254 kts | 289° |
| 2026-05-06 02:10 | 34.86821 | -91.79171 | 5006 ft | 253 kts | 289° |
| 2026-05-06 02:11 | 34.87571 | -91.81107 | 5006 ft | 251 kts | 289° |
| 2026-05-06 02:11 | 34.88293 | -91.82947 | 5002 ft | 231 kts | 289° |
| 2026-05-06 02:11 | 34.88971 | -91.84640 | 5003 ft | 214 kts | 289° |
| 2026-05-06 02:11 | 34.89626 | -91.86243 | 5005 ft | 210 kts | 289° |
| 2026-05-06 02:12 | 34.90272 | -91.87807 | 5006 ft | 200 kts | 289° |
| 2026-05-06 02:12 | 34.90888 | -91.89260 | 5005 ft | 186 kts | 289° |
| 2026-05-06 02:12 | 34.91476 | -91.90620 | 5005 ft | 179 kts | 289° |
| 2026-05-06 02:12 | 34.92046 | -91.91916 | 5027 ft | 167 kts | 289° |
| 2026-05-06 02:13 | 34.92393 | -91.93169 | 5009 ft | 154 kts | 272° |
| 2026-05-06 02:13 | 34.92349 | -91.94416 | 4989 ft | 141 kts | 249° |
| 2026-05-06 02:13 | 34.91890 | -91.95435 | 4847 ft | 134 kts | 238° |
| 2026-05-06 02:13 | 34.91411 | -91.96387 | 4773 ft | 131 kts | 237° |
| 2026-05-06 02:14 | 34.90937 | -91.97325 | 4737 ft | 130 kts | 237° |
| 2026-05-06 02:14 | 34.90479 | -91.98233 | 4710 ft | 130 kts | 237° |
| 2026-05-06 02:14 | 34.90007 | -91.99170 | 4682 ft | 130 kts | 238° |
| 2026-05-06 02:14 | 34.89532 | -92.00111 | 4656 ft | 130 kts | 238° |
| 2026-05-06 02:15 | 34.89065 | -92.01035 | 4466 ft | 128 kts | 238° |
| 2026-05-06 02:15 | 34.88599 | -92.01960 | 4192 ft | 128 kts | 237° |
| 2026-05-06 02:15 | 34.88132 | -92.02885 | 3938 ft | 128 kts | 237° |
| 2026-05-06 02:15 | 34.87668 | -92.03806 | 3696 ft | 128 kts | 236° |
| 2026-05-06 02:16 | 34.87171 | -92.04693 | 3467 ft | 126 kts | 227° |
| 2026-05-06 02:16 | 34.86565 | -92.05467 | 3226 ft | 126 kts | 226° |
| 2026-05-06 02:16 | 34.85962 | -92.06242 | 2999 ft | 126 kts | 225° |
| 2026-05-06 02:16 | 34.85362 | -92.07012 | 2760 ft | 125 kts | 225° |
| 2026-05-06 02:17 | 34.84764 | -92.07779 | 2537 ft | 124 kts | 226° |
| 2026-05-06 02:17 | 34.84174 | -92.08536 | 2307 ft | 123 kts | 226° |
| 2026-05-06 02:17 | 34.83784 | -92.09036 | 2243 ft | 122 kts | 226° |
| 2026-05-06 02:17 | 34.83254 | -92.09716 | 2216 ft | 123 kts | 225° |
| 2026-05-06 02:18 | 34.82661 | -92.10477 | 2219 ft | 123 kts | 225° |
| 2026-05-06 02:18 | 34.82068 | -92.11236 | 2217 ft | 124 kts | 224° |
| 2026-05-06 02:18 | 34.81472 | -92.12001 | 2211 ft | 124 kts | 225° |
| 2026-05-06 02:18 | 34.80880 | -92.12759 | 2226 ft | 124 kts | 225° |
| 2026-05-06 02:19 | 34.80288 | -92.13518 | 2228 ft | 123 kts | 225° |
| 2026-05-06 02:19 | 34.79698 | -92.14275 | 2154 ft | 125 kts | 225° |
| 2026-05-06 02:19 | 34.79113 | -92.15025 | 1888 ft | 125 kts | 223° |
| 2026-05-06 02:19 | 34.78504 | -92.15805 | 1682 ft | 123 kts | 223° |
| 2026-05-06 02:20 | 34.77339 | -92.17298 | 1325 ft | 122 kts | 224° |
| 2026-05-06 02:20 | 34.76778 | -92.18011 | 1162 ft | 124 kts | 224° |
| 2026-05-06 02:20 | 34.76154 | -92.18795 | 940 ft | 124 kts | 224° |
| 2026-05-06 02:21 | 34.75561 | -92.19555 | 811 ft | 126 kts | 225° |
| 2026-05-06 02:21 | 34.74956 | -92.20335 | 621 ft | 127 kts | 223° |
| 2026-05-06 02:21 | 34.74336 | -92.21127 | 458 ft | 129 kts | 225° |
| 2026-05-06 02:21 | 34.73722 | -92.21920 | 309 ft | 129 kts | 224° |
| 2026-05-06 02:22 | 34.73136 | -92.22669 | 263 ft | 105 kts | 225° |
| 2026-05-06 02:22 | 34.72822 | -92.23075 | 261 ft | 45 kts | 227° |
| 2026-05-06 02:22 | 34.72645 | -92.23272 | 265 ft | 16 kts | 179° |
| 2026-05-06 02:22 | 34.72587 | -92.23185 | 267 ft | 14 kts | 63° |
| 2026-05-06 02:23 | 34.72657 | -92.23092 | 266 ft | 16 kts | 48° |
| 2026-05-06 02:23 | 34.72739 | -92.22983 | 264 ft | 19 kts | 45° |
| 2026-05-06 02:23 | 34.72833 | -92.22869 | 264 ft | 20 kts | 46° |
| 2026-05-06 02:23 | 34.72932 | -92.22740 | 263 ft | 22 kts | 46° |
| 2026-05-06 02:24 | 34.73034 | -92.22609 | 266 ft | 21 kts | 47° |
| 2026-05-06 02:24 | 34.73134 | -92.22484 | 267 ft | 15 kts | 46° |
| 2026-05-06 02:24 | 34.73131 | -92.22369 | 269 ft | 15 kts | 111° |
| 2026-05-06 02:24 | 34.73094 | -92.22249 | 269 ft | 16 kts | 111° |
| 2026-05-06 02:25 | 34.73058 | -92.22131 | 269 ft | 12 kts | 103° |
| 2026-05-06 02:25 | 34.73043 | -92.22068 | 268 ft | 1 kts | 112° |
| 2026-05-06 02:25 | 34.73035 | -92.22047 | 268 ft | 4 kts | 112° |
| 2026-05-06 02:25 | 34.73029 | -92.22029 | 267 ft | 2 kts | 112° |
| 2026-05-06 02:26 | 34.73029 | -92.22028 | 267 ft | 0 kts | 112° |